sensor_id;sensor_type;location;lat;lon;timestamp;P1;durP1;ratioP1;P2;durP2;ratioP2
24383;SDS011;12504;52.870;8.798;2023-02-08T00:00:30;40.63;;;17.40;;
24383;SDS011;12504;52.870;8.798;2023-02-08T00:02:57;35.80;;;17.58;;
24383;SDS011;12504;52.870;8.798;2023-02-08T00:05:23;34.72;;;17.23;;
24383;SDS011;12504;52.870;8.798;2023-02-08T00:07:49;37.72;;;18.95;;
24383;SDS011;12504;52.870;8.798;2023-02-08T00:10:15;36.78;;;17.55;;
24383;SDS011;12504;52.870;8.798;2023-02-08T00:12:41;42.40;;;18.90;;
24383;SDS011;12504;52.870;8.798;2023-02-08T00:15:08;45.28;;;20.38;;
24383;SDS011;12504;52.870;8.798;2023-02-08T00:17:34;39.20;;;17.17;;
24383;SDS011;12504;52.870;8.798;2023-02-08T00:20:00;43.33;;;18.92;;
24383;SDS011;12504;52.870;8.798;2023-02-08T00:22:26;37.38;;;19.17;;
24383;SDS011;12504;52.870;8.798;2023-02-08T00:24:52;43.92;;;19.70;;
24383;SDS011;12504;52.870;8.798;2023-02-08T00:27:18;39.75;;;17.70;;
24383;SDS011;12504;52.870;8.798;2023-02-08T00:29:45;35.20;;;18.30;;
24383;SDS011;12504;52.870;8.798;2023-02-08T00:32:11;33.97;;;17.35;;
24383;SDS011;12504;52.870;8.798;2023-02-08T00:34:38;33.55;;;17.42;;
24383;SDS011;12504;52.870;8.798;2023-02-08T00:37:04;45.72;;;19.20;;
24383;SDS011;12504;52.870;8.798;2023-02-08T00:39:30;43.35;;;18.15;;
24383;SDS011;12504;52.870;8.798;2023-02-08T00:41:57;46.55;;;19.80;;
24383;SDS011;12504;52.870;8.798;2023-02-08T00:44:23;41.47;;;19.38;;
24383;SDS011;12504;52.870;8.798;2023-02-08T00:46:50;45.25;;;21.15;;
24383;SDS011;12504;52.870;8.798;2023-02-08T00:49:16;45.00;;;19.73;;
24383;SDS011;12504;52.870;8.798;2023-02-08T00:51:43;41.70;;;19.33;;
24383;SDS011;12504;52.870;8.798;2023-02-08T00:54:12;40.83;;;19.80;;
24383;SDS011;12504;52.870;8.798;2023-02-08T00:56:38;39.60;;;17.98;;
24383;SDS011;12504;52.870;8.798;2023-02-08T00:59:04;38.33;;;18.48;;
24383;SDS011;12504;52.870;8.798;2023-02-08T01:01:31;46.60;;;20.23;;
24383;SDS011;12504;52.870;8.798;2023-02-08T01:03:57;42.22;;;18.48;;
24383;SDS011;12504;52.870;8.798;2023-02-08T01:06:23;47.80;;;19.55;;
24383;SDS011;12504;52.870;8.798;2023-02-08T01:08:49;43.75;;;19.15;;
24383;SDS011;12504;52.870;8.798;2023-02-08T01:11:17;42.42;;;16.80;;
24383;SDS011;12504;52.870;8.798;2023-02-08T01:13:44;43.83;;;18.15;;
24383;SDS011;12504;52.870;8.798;2023-02-08T01:16:14;36.38;;;17.58;;
24383;SDS011;12504;52.870;8.798;2023-02-08T01:18:42;37.00;;;17.65;;
24383;SDS011;12504;52.870;8.798;2023-02-08T01:21:10;45.00;;;18.15;;
24383;SDS011;12504;52.870;8.798;2023-02-08T01:23:37;49.97;;;20.38;;
24383;SDS011;12504;52.870;8.798;2023-02-08T01:26:03;42.03;;;19.33;;
24383;SDS011;12504;52.870;8.798;2023-02-08T01:28:30;52.95;;;18.50;;
24383;SDS011;12504;52.870;8.798;2023-02-08T01:30:56;41.70;;;18.80;;
24383;SDS011;12504;52.870;8.798;2023-02-08T01:33:22;47.28;;;20.98;;
24383;SDS011;12504;52.870;8.798;2023-02-08T01:35:49;45.40;;;19.13;;
24383;SDS011;12504;52.870;8.798;2023-02-08T01:38:16;42.17;;;19.60;;
24383;SDS011;12504;52.870;8.798;2023-02-08T01:40:42;42.83;;;19.55;;
24383;SDS011;12504;52.870;8.798;2023-02-08T01:43:19;43.15;;;18.52;;
24383;SDS011;12504;52.870;8.798;2023-02-08T01:45:45;45.53;;;20.77;;
24383;SDS011;12504;52.870;8.798;2023-02-08T01:48:12;49.10;;;20.77;;
24383;SDS011;12504;52.870;8.798;2023-02-08T01:50:47;44.65;;;18.70;;
24383;SDS011;12504;52.870;8.798;2023-02-08T01:53:15;51.22;;;21.73;;
24383;SDS011;12504;52.870;8.798;2023-02-08T01:55:43;47.20;;;19.23;;
24383;SDS011;12504;52.870;8.798;2023-02-08T01:58:12;45.42;;;18.55;;
24383;SDS011;12504;52.870;8.798;2023-02-08T02:00:38;50.25;;;21.02;;
24383;SDS011;12504;52.870;8.798;2023-02-08T02:03:04;37.78;;;19.08;;
24383;SDS011;12504;52.870;8.798;2023-02-08T02:05:42;41.90;;;19.42;;
24383;SDS011;12504;52.870;8.798;2023-02-08T02:08:08;52.67;;;21.00;;
24383;SDS011;12504;52.870;8.798;2023-02-08T02:10:35;42.40;;;19.02;;
24383;SDS011;12504;52.870;8.798;2023-02-08T02:13:03;41.08;;;19.08;;
24383;SDS011;12504;52.870;8.798;2023-02-08T02:15:31;42.10;;;21.17;;
24383;SDS011;12504;52.870;8.798;2023-02-08T02:17:57;51.22;;;22.65;;
24383;SDS011;12504;52.870;8.798;2023-02-08T02:20:42;50.40;;;20.60;;
24383;SDS011;12504;52.870;8.798;2023-02-08T02:26:13;45.78;;;19.67;;
24383;SDS011;12504;52.870;8.798;2023-02-08T02:29:02;47.85;;;20.27;;
24383;SDS011;12504;52.870;8.798;2023-02-08T02:40:20;48.70;;;21.40;;
24383;SDS011;12504;52.870;8.798;2023-02-08T02:43:03;44.60;;;18.80;;
24383;SDS011;12504;52.870;8.798;2023-02-08T02:46:03;52.05;;;20.58;;
24383;SDS011;12504;52.870;8.798;2023-02-08T02:48:41;45.15;;;17.50;;
24383;SDS011;12504;52.870;8.798;2023-02-08T02:51:31;44.00;;;19.33;;
24383;SDS011;12504;52.870;8.798;2023-02-08T02:56:54;48.00;;;22.17;;
24383;SDS011;12504;52.870;8.798;2023-02-08T02:59:21;43.47;;;19.85;;
24383;SDS011;12504;52.870;8.798;2023-02-08T03:01:47;39.00;;;20.60;;
24383;SDS011;12504;52.870;8.798;2023-02-08T03:20:07;49.17;;;20.40;;
24383;SDS011;12504;52.870;8.798;2023-02-08T03:22:52;44.38;;;20.85;;
24383;SDS011;12504;52.870;8.798;2023-02-08T03:25:23;41.80;;;19.05;;
24383;SDS011;12504;52.870;8.798;2023-02-08T03:27:54;36.83;;;20.17;;
24383;SDS011;12504;52.870;8.798;2023-02-08T03:32:51;49.20;;;20.70;;
24383;SDS011;12504;52.870;8.798;2023-02-08T03:35:41;53.40;;;22.80;;
24383;SDS011;12504;52.870;8.798;2023-02-08T03:38:10;50.55;;;22.35;;
24383;SDS011;12504;52.870;8.798;2023-02-08T03:40:39;52.10;;;20.15;;
24383;SDS011;12504;52.870;8.798;2023-02-08T03:43:14;44.65;;;20.42;;
24383;SDS011;12504;52.870;8.798;2023-02-08T03:45:42;39.05;;;18.88;;
24383;SDS011;12504;52.870;8.798;2023-02-08T03:48:11;44.50;;;19.70;;
24383;SDS011;12504;52.870;8.798;2023-02-08T03:50:39;39.75;;;19.67;;
24383;SDS011;12504;52.870;8.798;2023-02-08T03:53:06;43.60;;;21.60;;
24383;SDS011;12504;52.870;8.798;2023-02-08T03:55:34;44.20;;;21.25;;
24383;SDS011;12504;52.870;8.798;2023-02-08T04:00:37;51.35;;;23.15;;
24383;SDS011;12504;52.870;8.798;2023-02-08T04:03:05;46.45;;;19.52;;
24383;SDS011;12504;52.870;8.798;2023-02-08T04:05:33;45.13;;;21.02;;
24383;SDS011;12504;52.870;8.798;2023-02-08T04:07:59;46.25;;;22.02;;
24383;SDS011;12504;52.870;8.798;2023-02-08T04:10:26;38.67;;;18.83;;
24383;SDS011;12504;52.870;8.798;2023-02-08T04:12:52;44.58;;;20.00;;
24383;SDS011;12504;52.870;8.798;2023-02-08T04:15:18;46.03;;;21.25;;
24383;SDS011;12504;52.870;8.798;2023-02-08T04:17:44;46.05;;;22.67;;
24383;SDS011;12504;52.870;8.798;2023-02-08T04:20:10;47.22;;;22.05;;
24383;SDS011;12504;52.870;8.798;2023-02-08T04:22:37;50.35;;;19.95;;
24383;SDS011;12504;52.870;8.798;2023-02-08T04:25:03;45.20;;;20.50;;
24383;SDS011;12504;52.870;8.798;2023-02-08T04:27:29;52.53;;;20.65;;
24383;SDS011;12504;52.870;8.798;2023-02-08T04:29:55;37.38;;;19.08;;
24383;SDS011;12504;52.870;8.798;2023-02-08T04:32:21;64.63;;;23.80;;
24383;SDS011;12504;52.870;8.798;2023-02-08T04:34:48;57.88;;;21.88;;
24383;SDS011;12504;52.870;8.798;2023-02-08T04:37:14;50.05;;;21.80;;
24383;SDS011;12504;52.870;8.798;2023-02-08T04:39:40;53.78;;;23.13;;
24383;SDS011;12504;52.870;8.798;2023-02-08T04:42:07;51.67;;;23.25;;
24383;SDS011;12504;52.870;8.798;2023-02-08T04:44:33;51.25;;;22.38;;
24383;SDS011;12504;52.870;8.798;2023-02-08T04:46:59;41.42;;;20.48;;
24383;SDS011;12504;52.870;8.798;2023-02-08T04:49:25;45.22;;;21.10;;
24383;SDS011;12504;52.870;8.798;2023-02-08T04:51:52;44.03;;;22.85;;
24383;SDS011;12504;52.870;8.798;2023-02-08T04:54:18;48.53;;;21.88;;
24383;SDS011;12504;52.870;8.798;2023-02-08T04:56:44;53.25;;;23.33;;
24383;SDS011;12504;52.870;8.798;2023-02-08T04:59:10;54.47;;;21.55;;
24383;SDS011;12504;52.870;8.798;2023-02-08T05:01:36;46.17;;;19.83;;
24383;SDS011;12504;52.870;8.798;2023-02-08T05:04:02;60.30;;;23.83;;
24383;SDS011;12504;52.870;8.798;2023-02-08T05:06:28;46.67;;;21.63;;
24383;SDS011;12504;52.870;8.798;2023-02-08T05:08:54;41.30;;;20.02;;
24383;SDS011;12504;52.870;8.798;2023-02-08T05:11:21;47.85;;;23.60;;
24383;SDS011;12504;52.870;8.798;2023-02-08T05:13:48;51.60;;;22.27;;
24383;SDS011;12504;52.870;8.798;2023-02-08T05:16:14;52.47;;;21.80;;
24383;SDS011;12504;52.870;8.798;2023-02-08T05:18:40;50.85;;;22.10;;
24383;SDS011;12504;52.870;8.798;2023-02-08T05:21:06;46.95;;;22.10;;
24383;SDS011;12504;52.870;8.798;2023-02-08T05:23:32;48.75;;;21.38;;
24383;SDS011;12504;52.870;8.798;2023-02-08T05:25:59;52.58;;;23.38;;
24383;SDS011;12504;52.870;8.798;2023-02-08T05:28:25;42.40;;;20.33;;
24383;SDS011;12504;52.870;8.798;2023-02-08T05:30:51;46.65;;;21.13;;
24383;SDS011;12504;52.870;8.798;2023-02-08T05:33:17;40.08;;;21.10;;
24383;SDS011;12504;52.870;8.798;2023-02-08T05:35:44;41.72;;;21.50;;
24383;SDS011;12504;52.870;8.798;2023-02-08T05:38:10;44.85;;;24.60;;
24383;SDS011;12504;52.870;8.798;2023-02-08T05:40:36;52.53;;;23.85;;
24383;SDS011;12504;52.870;8.798;2023-02-08T05:43:02;49.97;;;23.52;;
24383;SDS011;12504;52.870;8.798;2023-02-08T05:45:28;54.80;;;23.30;;
24383;SDS011;12504;52.870;8.798;2023-02-08T05:47:54;50.45;;;21.83;;
24383;SDS011;12504;52.870;8.798;2023-02-08T05:50:20;51.15;;;22.55;;
24383;SDS011;12504;52.870;8.798;2023-02-08T05:52:49;53.35;;;26.38;;
24383;SDS011;12504;52.870;8.798;2023-02-08T05:55:15;55.13;;;27.23;;
24383;SDS011;12504;52.870;8.798;2023-02-08T05:57:41;55.28;;;25.80;;
24383;SDS011;12504;52.870;8.798;2023-02-08T06:00:07;51.90;;;21.50;;
24383;SDS011;12504;52.870;8.798;2023-02-08T06:02:41;54.92;;;23.30;;
24383;SDS011;12504;52.870;8.798;2023-02-08T06:05:07;46.75;;;23.23;;
24383;SDS011;12504;52.870;8.798;2023-02-08T06:07:33;52.05;;;23.20;;
24383;SDS011;12504;52.870;8.798;2023-02-08T06:09:59;59.05;;;25.35;;
24383;SDS011;12504;52.870;8.798;2023-02-08T06:12:25;51.10;;;23.10;;
24383;SDS011;12504;52.870;8.798;2023-02-08T06:14:51;48.72;;;24.52;;
24383;SDS011;12504;52.870;8.798;2023-02-08T06:17:17;53.78;;;25.10;;
24383;SDS011;12504;52.870;8.798;2023-02-08T06:19:44;58.30;;;26.52;;
24383;SDS011;12504;52.870;8.798;2023-02-08T06:22:10;63.20;;;27.92;;
24383;SDS011;12504;52.870;8.798;2023-02-08T06:24:36;54.38;;;26.45;;
24383;SDS011;12504;52.870;8.798;2023-02-08T06:27:02;60.92;;;26.00;;
24383;SDS011;12504;52.870;8.798;2023-02-08T06:29:28;57.03;;;27.83;;
24383;SDS011;12504;52.870;8.798;2023-02-08T06:31:54;54.80;;;25.58;;
24383;SDS011;12504;52.870;8.798;2023-02-08T06:34:20;50.60;;;23.45;;
24383;SDS011;12504;52.870;8.798;2023-02-08T06:36:46;55.67;;;23.90;;
24383;SDS011;12504;52.870;8.798;2023-02-08T06:39:12;56.95;;;25.45;;
24383;SDS011;12504;52.870;8.798;2023-02-08T06:41:38;53.38;;;24.63;;
24383;SDS011;12504;52.870;8.798;2023-02-08T06:44:05;54.70;;;23.98;;
24383;SDS011;12504;52.870;8.798;2023-02-08T06:46:31;51.95;;;23.92;;
24383;SDS011;12504;52.870;8.798;2023-02-08T06:48:57;56.53;;;24.83;;
24383;SDS011;12504;52.870;8.798;2023-02-08T06:51:24;66.43;;;26.40;;
24383;SDS011;12504;52.870;8.798;2023-02-08T06:53:50;49.28;;;23.73;;
24383;SDS011;12504;52.870;8.798;2023-02-08T06:56:17;50.70;;;24.95;;
24383;SDS011;12504;52.870;8.798;2023-02-08T06:58:43;58.63;;;26.45;;
24383;SDS011;12504;52.870;8.798;2023-02-08T07:01:10;57.03;;;24.42;;
24383;SDS011;12504;52.870;8.798;2023-02-08T07:03:37;60.85;;;24.80;;
24383;SDS011;12504;52.870;8.798;2023-02-08T07:06:03;64.10;;;26.48;;
24383;SDS011;12504;52.870;8.798;2023-02-08T07:08:29;53.63;;;24.73;;
24383;SDS011;12504;52.870;8.798;2023-02-08T07:10:55;61.97;;;25.13;;
24383;SDS011;12504;52.870;8.798;2023-02-08T07:13:22;64.07;;;28.10;;
24383;SDS011;12504;52.870;8.798;2023-02-08T07:15:48;57.97;;;27.17;;
24383;SDS011;12504;52.870;8.798;2023-02-08T07:18:14;63.42;;;27.92;;
24383;SDS011;12504;52.870;8.798;2023-02-08T07:20:40;57.15;;;26.40;;
24383;SDS011;12504;52.870;8.798;2023-02-08T07:23:06;70.13;;;27.58;;
24383;SDS011;12504;52.870;8.798;2023-02-08T07:25:32;61.55;;;25.17;;
24383;SDS011;12504;52.870;8.798;2023-02-08T07:27:58;62.28;;;29.90;;
24383;SDS011;12504;52.870;8.798;2023-02-08T07:30:24;69.10;;;30.58;;
24383;SDS011;12504;52.870;8.798;2023-02-08T07:32:50;74.47;;;30.70;;
24383;SDS011;12504;52.870;8.798;2023-02-08T07:35:16;70.57;;;28.23;;
24383;SDS011;12504;52.870;8.798;2023-02-08T07:37:42;78.07;;;30.67;;
24383;SDS011;12504;52.870;8.798;2023-02-08T07:40:09;71.75;;;28.75;;
24383;SDS011;12504;52.870;8.798;2023-02-08T07:42:35;77.90;;;30.90;;
24383;SDS011;12504;52.870;8.798;2023-02-08T07:45:15;50.80;;;22.85;;
24383;SDS011;12504;52.870;8.798;2023-02-08T07:47:41;68.20;;;29.02;;
24383;SDS011;12504;52.870;8.798;2023-02-08T07:50:07;71.82;;;28.85;;
24383;SDS011;12504;52.870;8.798;2023-02-08T07:52:33;76.70;;;30.15;;
24383;SDS011;12504;52.870;8.798;2023-02-08T07:54:59;74.60;;;31.52;;
24383;SDS011;12504;52.870;8.798;2023-02-08T07:57:25;76.85;;;29.48;;
24383;SDS011;12504;52.870;8.798;2023-02-08T07:59:51;79.50;;;31.65;;
24383;SDS011;12504;52.870;8.798;2023-02-08T08:02:17;65.93;;;28.13;;
24383;SDS011;12504;52.870;8.798;2023-02-08T08:04:44;62.40;;;29.00;;
24383;SDS011;12504;52.870;8.798;2023-02-08T08:07:10;77.13;;;33.15;;
24383;SDS011;12504;52.870;8.798;2023-02-08T08:09:36;75.95;;;33.10;;
24383;SDS011;12504;52.870;8.798;2023-02-08T08:12:02;66.65;;;28.52;;
24383;SDS011;12504;52.870;8.798;2023-02-08T08:14:29;75.38;;;31.42;;
24383;SDS011;12504;52.870;8.798;2023-02-08T08:16:55;73.38;;;31.13;;
24383;SDS011;12504;52.870;8.798;2023-02-08T08:19:21;80.68;;;32.97;;
24383;SDS011;12504;52.870;8.798;2023-02-08T08:21:47;85.68;;;32.00;;
24383;SDS011;12504;52.870;8.798;2023-02-08T08:24:13;75.13;;;29.85;;
24383;SDS011;12504;52.870;8.798;2023-02-08T08:26:39;72.70;;;32.00;;
24383;SDS011;12504;52.870;8.798;2023-02-08T08:29:06;69.65;;;32.15;;
24383;SDS011;12504;52.870;8.798;2023-02-08T08:31:32;68.68;;;30.77;;
24383;SDS011;12504;52.870;8.798;2023-02-08T08:33:58;66.88;;;30.23;;
24383;SDS011;12504;52.870;8.798;2023-02-08T08:36:29;68.93;;;30.95;;
24383;SDS011;12504;52.870;8.798;2023-02-08T08:38:55;72.50;;;30.20;;
24383;SDS011;12504;52.870;8.798;2023-02-08T08:41:21;64.32;;;25.92;;
24383;SDS011;12504;52.870;8.798;2023-02-08T08:43:48;68.40;;;29.42;;
24383;SDS011;12504;52.870;8.798;2023-02-08T08:46:14;64.80;;;26.88;;
24383;SDS011;12504;52.870;8.798;2023-02-08T08:48:40;54.95;;;25.30;;
24383;SDS011;12504;52.870;8.798;2023-02-08T08:51:07;67.82;;;27.20;;
24383;SDS011;12504;52.870;8.798;2023-02-08T08:53:33;58.97;;;25.98;;
24383;SDS011;12504;52.870;8.798;2023-02-08T08:56:01;64.03;;;26.55;;
24383;SDS011;12504;52.870;8.798;2023-02-08T08:58:27;58.15;;;27.13;;
24383;SDS011;12504;52.870;8.798;2023-02-08T09:00:57;57.13;;;25.75;;
24383;SDS011;12504;52.870;8.798;2023-02-08T09:03:24;48.85;;;25.63;;
24383;SDS011;12504;52.870;8.798;2023-02-08T09:05:51;64.05;;;27.77;;
24383;SDS011;12504;52.870;8.798;2023-02-08T09:08:17;59.47;;;25.70;;
24383;SDS011;12504;52.870;8.798;2023-02-08T09:10:43;56.60;;;25.27;;
24383;SDS011;12504;52.870;8.798;2023-02-08T09:13:10;65.40;;;25.58;;
24383;SDS011;12504;52.870;8.798;2023-02-08T09:15:43;58.78;;;24.95;;
24383;SDS011;12504;52.870;8.798;2023-02-08T09:18:10;52.45;;;23.10;;
24383;SDS011;12504;52.870;8.798;2023-02-08T09:20:39;61.35;;;24.58;;
24383;SDS011;12504;52.870;8.798;2023-02-08T09:23:08;54.65;;;23.40;;
24383;SDS011;12504;52.870;8.798;2023-02-08T09:25:35;61.83;;;25.75;;
24383;SDS011;12504;52.870;8.798;2023-02-08T09:28:02;49.63;;;24.35;;
24383;SDS011;12504;52.870;8.798;2023-02-08T09:30:28;52.15;;;23.08;;
24383;SDS011;12504;52.870;8.798;2023-02-08T09:32:53;56.63;;;21.42;;
24383;SDS011;12504;52.870;8.798;2023-02-08T09:35:20;54.80;;;24.20;;
24383;SDS011;12504;52.870;8.798;2023-02-08T09:37:46;52.45;;;22.75;;
24383;SDS011;12504;52.870;8.798;2023-02-08T09:40:20;48.17;;;22.30;;
24383;SDS011;12504;52.870;8.798;2023-02-08T09:42:48;49.95;;;22.95;;
24383;SDS011;12504;52.870;8.798;2023-02-08T09:48:20;48.53;;;22.20;;
24383;SDS011;12504;52.870;8.798;2023-02-08T09:50:44;48.70;;;20.45;;
24383;SDS011;12504;52.870;8.798;2023-02-08T09:53:15;54.28;;;21.00;;
24383;SDS011;12504;52.870;8.798;2023-02-08T09:55:45;47.72;;;23.67;;
24383;SDS011;12504;52.870;8.798;2023-02-08T09:58:19;44.92;;;20.88;;
24383;SDS011;12504;52.870;8.798;2023-02-08T10:00:46;46.05;;;20.95;;
24383;SDS011;12504;52.870;8.798;2023-02-08T10:06:00;44.30;;;19.75;;
24383;SDS011;12504;52.870;8.798;2023-02-08T10:08:27;46.88;;;20.27;;
24383;SDS011;12504;52.870;8.798;2023-02-08T10:10:54;45.28;;;21.02;;
24383;SDS011;12504;52.870;8.798;2023-02-08T10:13:35;40.05;;;18.42;;
24383;SDS011;12504;52.870;8.798;2023-02-08T10:18:56;33.92;;;17.08;;
24383;SDS011;12504;52.870;8.798;2023-02-08T10:29:45;30.80;;;14.48;;
24383;SDS011;12504;52.870;8.798;2023-02-08T10:32:42;27.33;;;13.95;;
24383;SDS011;12504;52.870;8.798;2023-02-08T10:35:26;24.70;;;12.38;;
24383;SDS011;12504;52.870;8.798;2023-02-08T10:38:02;34.25;;;14.48;;
24383;SDS011;12504;52.870;8.798;2023-02-08T10:40:41;24.63;;;13.95;;
24383;SDS011;12504;52.870;8.798;2023-02-08T10:43:14;29.35;;;14.50;;
24383;SDS011;12504;52.870;8.798;2023-02-08T10:46:01;31.02;;;16.40;;
24383;SDS011;12504;52.870;8.798;2023-02-08T10:51:10;33.08;;;15.35;;
24383;SDS011;12504;52.870;8.798;2023-02-08T10:53:39;34.30;;;15.93;;
24383;SDS011;12504;52.870;8.798;2023-02-08T10:56:05;28.48;;;14.57;;
24383;SDS011;12504;52.870;8.798;2023-02-08T10:58:31;33.33;;;13.60;;
24383;SDS011;12504;52.870;8.798;2023-02-08T11:00:57;28.83;;;14.70;;
24383;SDS011;12504;52.870;8.798;2023-02-08T11:03:25;28.98;;;13.15;;
24383;SDS011;12504;52.870;8.798;2023-02-08T11:05:53;28.58;;;16.05;;
24383;SDS011;12504;52.870;8.798;2023-02-08T11:08:23;36.50;;;15.82;;
24383;SDS011;12504;52.870;8.798;2023-02-08T11:13:37;34.70;;;13.70;;
24383;SDS011;12504;52.870;8.798;2023-02-08T11:16:06;32.03;;;14.32;;
24383;SDS011;12504;52.870;8.798;2023-02-08T11:18:35;30.27;;;15.47;;
24383;SDS011;12504;52.870;8.798;2023-02-08T11:21:05;30.67;;;13.95;;
24383;SDS011;12504;52.870;8.798;2023-02-08T11:23:50;29.35;;;14.57;;
24383;SDS011;12504;52.870;8.798;2023-02-08T11:29:12;25.42;;;13.10;;
24383;SDS011;12504;52.870;8.798;2023-02-08T11:34:25;24.08;;;12.75;;
24383;SDS011;12504;52.870;8.798;2023-02-08T11:36:57;23.25;;;9.75;;
24383;SDS011;12504;52.870;8.798;2023-02-08T11:39:35;19.75;;;10.15;;
24383;SDS011;12504;52.870;8.798;2023-02-08T11:42:04;17.42;;;10.10;;
24383;SDS011;12504;52.870;8.798;2023-02-08T11:44:41;20.70;;;9.32;;
24383;SDS011;12504;52.870;8.798;2023-02-08T11:47:07;16.17;;;9.02;;
24383;SDS011;12504;52.870;8.798;2023-02-08T11:49:39;23.13;;;10.05;;
24383;SDS011;12504;52.870;8.798;2023-02-08T11:52:06;21.20;;;9.65;;
24383;SDS011;12504;52.870;8.798;2023-02-08T11:54:43;18.70;;;8.73;;
24383;SDS011;12504;52.870;8.798;2023-02-08T11:57:11;13.65;;;8.50;;
24383;SDS011;12504;52.870;8.798;2023-02-08T11:59:43;14.65;;;8.07;;
24383;SDS011;12504;52.870;8.798;2023-02-08T12:02:24;13.85;;;8.20;;
24383;SDS011;12504;52.870;8.798;2023-02-08T12:04:54;16.52;;;8.35;;
24383;SDS011;12504;52.870;8.798;2023-02-08T12:10:10;13.38;;;6.85;;
24383;SDS011;12504;52.870;8.798;2023-02-08T12:13:09;10.63;;;6.97;;
24383;SDS011;12504;52.870;8.798;2023-02-08T12:15:47;10.35;;;6.10;;
24383;SDS011;12504;52.870;8.798;2023-02-08T12:21:35;10.93;;;5.85;;
24383;SDS011;12504;52.870;8.798;2023-02-08T12:24:23;11.45;;;6.70;;
24383;SDS011;12504;52.870;8.798;2023-02-08T12:27:02;9.65;;;6.40;;
24383;SDS011;12504;52.870;8.798;2023-02-08T12:35:21;9.80;;;6.03;;
24383;SDS011;12504;52.870;8.798;2023-02-08T12:40:49;10.65;;;6.00;;
24383;SDS011;12504;52.870;8.798;2023-02-08T12:57:01;11.63;;;6.28;;
24383;SDS011;12504;52.870;8.798;2023-02-08T13:05:10;13.95;;;7.57;;
24383;SDS011;12504;52.870;8.798;2023-02-08T13:07:43;12.32;;;6.70;;
24383;SDS011;12504;52.870;8.798;2023-02-08T13:10:12;11.95;;;7.38;;
24383;SDS011;12504;52.870;8.798;2023-02-08T13:15:55;13.38;;;6.30;;
24383;SDS011;12504;52.870;8.798;2023-02-08T13:18:23;11.13;;;6.45;;
24383;SDS011;12504;52.870;8.798;2023-02-08T13:20:53;11.57;;;6.53;;
24383;SDS011;12504;52.870;8.798;2023-02-08T13:23:36;10.23;;;6.13;;
24383;SDS011;12504;52.870;8.798;2023-02-08T13:26:08;11.57;;;6.07;;
24383;SDS011;12504;52.870;8.798;2023-02-08T13:28:37;10.50;;;6.05;;
24383;SDS011;12504;52.870;8.798;2023-02-08T13:31:06;12.00;;;5.55;;
24383;SDS011;12504;52.870;8.798;2023-02-08T13:33:41;13.45;;;6.57;;
24383;SDS011;12504;52.870;8.798;2023-02-08T13:36:21;10.63;;;6.30;;
24383;SDS011;12504;52.870;8.798;2023-02-08T13:38:51;13.13;;;5.63;;
24383;SDS011;12504;52.870;8.798;2023-02-08T13:41:18;10.27;;;6.20;;
24383;SDS011;12504;52.870;8.798;2023-02-08T13:43:50;14.57;;;7.18;;
24383;SDS011;12504;52.870;8.798;2023-02-08T13:46:22;14.70;;;7.22;;
24383;SDS011;12504;52.870;8.798;2023-02-08T13:48:51;11.15;;;5.90;;
24383;SDS011;12504;52.870;8.798;2023-02-08T13:56:40;9.63;;;5.47;;
24383;SDS011;12504;52.870;8.798;2023-02-08T14:04:44;10.70;;;5.55;;
24383;SDS011;12504;52.870;8.798;2023-02-08T14:10:50;10.45;;;5.05;;
24383;SDS011;12504;52.870;8.798;2023-02-08T14:12:58;11.10;;;5.53;;
24383;SDS011;12504;52.870;8.798;2023-02-08T14:15:31;13.65;;;6.68;;
24383;SDS011;12504;52.870;8.798;2023-02-08T14:18:00;15.50;;;7.28;;
24383;SDS011;12504;52.870;8.798;2023-02-08T14:23:00;18.50;;;8.65;;
24383;SDS011;12504;52.870;8.798;2023-02-08T14:25:39;15.45;;;8.80;;
24383;SDS011;12504;52.870;8.798;2023-02-08T14:28:20;19.38;;;9.60;;
24383;SDS011;12504;52.870;8.798;2023-02-08T14:31:05;20.10;;;10.07;;
24383;SDS011;12504;52.870;8.798;2023-02-08T14:33:35;19.70;;;12.17;;
24383;SDS011;12504;52.870;8.798;2023-02-08T14:36:04;15.27;;;8.60;;
24383;SDS011;12504;52.870;8.798;2023-02-08T14:41:40;17.52;;;9.27;;
24383;SDS011;12504;52.870;8.798;2023-02-08T14:49:54;19.90;;;10.65;;
24383;SDS011;12504;52.870;8.798;2023-02-08T14:52:35;19.92;;;11.60;;
24383;SDS011;12504;52.870;8.798;2023-02-08T14:55:04;21.95;;;10.23;;
24383;SDS011;12504;52.870;8.798;2023-02-08T14:57:36;24.50;;;11.23;;
24383;SDS011;12504;52.870;8.798;2023-02-08T15:00:15;25.17;;;12.98;;
24383;SDS011;12504;52.870;8.798;2023-02-08T15:02:47;29.45;;;14.10;;
24383;SDS011;12504;52.870;8.798;2023-02-08T15:05:24;25.98;;;14.23;;
24383;SDS011;12504;52.870;8.798;2023-02-08T15:07:56;29.90;;;15.32;;
24383;SDS011;12504;52.870;8.798;2023-02-08T15:12:53;37.13;;;16.90;;
24383;SDS011;12504;52.870;8.798;2023-02-08T15:17:50;34.22;;;16.27;;
24383;SDS011;12504;52.870;8.798;2023-02-08T15:20:27;32.85;;;17.65;;
24383;SDS011;12504;52.870;8.798;2023-02-08T15:22:59;26.98;;;14.85;;
24383;SDS011;12504;52.870;8.798;2023-02-08T15:25:28;34.25;;;16.98;;
24383;SDS011;12504;52.870;8.798;2023-02-08T15:30:43;32.35;;;16.45;;
24383;SDS011;12504;52.870;8.798;2023-02-08T15:33:13;32.17;;;16.58;;
24383;SDS011;12504;52.870;8.798;2023-02-08T15:35:44;33.00;;;16.15;;
24383;SDS011;12504;52.870;8.798;2023-02-08T15:38:19;34.25;;;15.25;;
24383;SDS011;12504;52.870;8.798;2023-02-08T15:41:07;29.50;;;15.52;;
24383;SDS011;12504;52.870;8.798;2023-02-08T15:43:35;33.20;;;16.20;;
24383;SDS011;12504;52.870;8.798;2023-02-08T15:46:03;41.97;;;17.88;;
24383;SDS011;12504;52.870;8.798;2023-02-08T15:48:31;33.50;;;18.00;;
24383;SDS011;12504;52.870;8.798;2023-02-08T15:50:58;35.40;;;16.60;;
24383;SDS011;12504;52.870;8.798;2023-02-08T15:53:24;32.50;;;16.63;;
24383;SDS011;12504;52.870;8.798;2023-02-08T15:55:52;36.65;;;16.52;;
24383;SDS011;12504;52.870;8.798;2023-02-08T15:58:26;34.88;;;17.00;;
24383;SDS011;12504;52.870;8.798;2023-02-08T16:00:57;34.13;;;17.95;;
24383;SDS011;12504;52.870;8.798;2023-02-08T16:03:25;35.42;;;16.90;;
24383;SDS011;12504;52.870;8.798;2023-02-08T16:06:02;35.13;;;15.35;;
24383;SDS011;12504;52.870;8.798;2023-02-08T16:08:34;38.00;;;16.75;;
24383;SDS011;12504;52.870;8.798;2023-02-08T16:11:07;38.00;;;18.20;;
24383;SDS011;12504;52.870;8.798;2023-02-08T16:14:00;37.97;;;16.30;;
24383;SDS011;12504;52.870;8.798;2023-02-08T16:19:40;28.83;;;16.63;;
24383;SDS011;12504;52.870;8.798;2023-02-08T16:24:46;35.10;;;16.92;;
24383;SDS011;12504;52.870;8.798;2023-02-08T16:27:19;34.00;;;15.73;;
24383;SDS011;12504;52.870;8.798;2023-02-08T16:29:53;31.58;;;17.90;;
24383;SDS011;12504;52.870;8.798;2023-02-08T16:34:54;26.50;;;14.05;;
24383;SDS011;12504;52.870;8.798;2023-02-08T16:37:24;34.50;;;17.42;;
24383;SDS011;12504;52.870;8.798;2023-02-08T16:39:51;35.53;;;16.77;;
24383;SDS011;12504;52.870;8.798;2023-02-08T16:45:01;36.58;;;17.45;;
24383;SDS011;12504;52.870;8.798;2023-02-08T16:47:34;37.08;;;18.60;;
24383;SDS011;12504;52.870;8.798;2023-02-08T16:50:21;38.33;;;17.13;;
24383;SDS011;12504;52.870;8.798;2023-02-08T16:52:50;36.13;;;19.23;;
24383;SDS011;12504;52.870;8.798;2023-02-08T16:55:23;36.60;;;16.58;;
24383;SDS011;12504;52.870;8.798;2023-02-08T16:57:51;39.47;;;16.63;;
24383;SDS011;12504;52.870;8.798;2023-02-08T17:00:23;38.83;;;16.10;;